Ecuador Ama la vida
Dirección General de Aviación Civil
IFIS
Jueves 19 de Abril del 2018
Buscar por aerodromo o helipuerto
Ingrese nombre de aeródromo, localidad o designador OACI:

Buscar por Fir

METAR del 19-04-2018 a las 23:00 UTC
SEQM 192300Z 36010KT 9999 BKN033 SCT200 18/12 Q1023 NOSIG RMK A3023=
Viento: dirección 360 grados, velocidad 10 nudos
Visibilidad reinante: 10 km o más
Nubes: Fragmentadas a 3300 pies sobre el nivel del terreno
Nubes: Dispersas a 20000 pies sobre el nivel del terreno
Temperatura: 18 °C
Rocío: 12 °C
Humedad_relativa: 68%
Presión: 1023 hPa
No se esperan cambios significativos en las próximas 2 horas
Información adicional:
Qnh: 30.23 inHg
METAR del 19-04-2018 a las 22:00 UTC
SEQM 192200Z 34010KT 9999 BKN033 SCT080 19/11 Q1022 NOSIG RMK A3020=
Viento: dirección 340 grados, velocidad 10 nudos
Visibilidad reinante: 10 km o más
Nubes: Fragmentadas a 3300 pies sobre el nivel del terreno
Nubes: Dispersas a 8000 pies sobre el nivel del terreno
Temperatura: 19 °C
Rocío: 11 °C
Humedad_relativa: 60%
Presión: 1022 hPa
No se esperan cambios significativos en las próximas 2 horas
Información adicional:
Qnh: 30.20 inHg
METAR del 19-04-2018 a las 21:00 UTC
SEQM 192100Z 36009KT 9999 BKN033 SCT080 20/13 Q1022 NOSIG RMK A3019=
Viento: dirección 360 grados, velocidad 9 nudos
Visibilidad reinante: 10 km o más
Nubes: Fragmentadas a 3300 pies sobre el nivel del terreno
Nubes: Dispersas a 8000 pies sobre el nivel del terreno
Temperatura: 20 °C
Rocío: 13 °C
Humedad_relativa: 64%
Presión: 1022 hPa
No se esperan cambios significativos en las próximas 2 horas
Información adicional:
Qnh: 30.19 inHg
METAR del 19-04-2018 a las 20:00 UTC
SEQM 192000Z 36011KT 9999 BKN033 SCT080 22/12 Q1022 NOSIG RMK A3019=
Viento: dirección 360 grados, velocidad 11 nudos
Visibilidad reinante: 10 km o más
Nubes: Fragmentadas a 3300 pies sobre el nivel del terreno
Nubes: Dispersas a 8000 pies sobre el nivel del terreno
Temperatura: 22 °C
Rocío: 12 °C
Humedad_relativa: 53%
Presión: 1022 hPa
No se esperan cambios significativos en las próximas 2 horas
Información adicional:
Qnh: 30.19 inHg
METAR del 19-04-2018 a las 19:00 UTC
SEQM 191900Z 16010G21KT 9999 BKN033 SCT080 24/06 Q1023 NOSIG RMK A3021=
Viento: dirección 160 grados, velocidad 10 nudos, con ráfagas de velocidad máxima de 21Nudos
Visibilidad reinante: 10 km o más
Nubes: Fragmentadas a 3300 pies sobre el nivel del terreno
Nubes: Dispersas a 8000 pies sobre el nivel del terreno
Temperatura: 24 °C
Rocío: 6 °C
Humedad_relativa: 31%
Presión: 1023 hPa
No se esperan cambios significativos en las próximas 2 horas
Información adicional:
Qnh: 30.21 inHg
METAR del 19-04-2018 a las 18:00 UTC
SEQM 191800Z 16014KT 9999 SCT033 BKN080 25/06 Q1024 NOSIG RMK A3024=
Viento: dirección 160 grados, velocidad 14 nudos
Visibilidad reinante: 10 km o más
Nubes: Dispersas a 3300 pies sobre el nivel del terreno
Nubes: Fragmentadas a 8000 pies sobre el nivel del terreno
Temperatura: 25 °C
Rocío: 6 °C
Humedad_relativa: 30%
Presión: 1024 hPa
No se esperan cambios significativos en las próximas 2 horas
Información adicional:
Qnh: 30.24 inHg
METAR del 19-04-2018 a las 17:00 UTC
SEQM 191700Z 13004KT 9999 SCT033 SCT080 24/07 Q1025 NOSIG RMK A3027=
Viento: dirección 130 grados, velocidad 4 nudos
Visibilidad reinante: 10 km o más
Nubes: Dispersas a 3300 pies sobre el nivel del terreno
Nubes: Dispersas a 8000 pies sobre el nivel del terreno
Temperatura: 24 °C
Rocío: 7 °C
Humedad_relativa: 34%
Presión: 1025 hPa
No se esperan cambios significativos en las próximas 2 horas
Información adicional:
Qnh: 30.27 inHg
METAR del 19-04-2018 a las 16:00 UTC
SEQM 191600Z 03003KT 9999 SCT033 SCT080 22/08 Q1025 NOSIG RMK A3029=
Viento: dirección 030 grados, velocidad 3 nudos
Visibilidad reinante: 10 km o más
Nubes: Dispersas a 3300 pies sobre el nivel del terreno
Nubes: Dispersas a 8000 pies sobre el nivel del terreno
Temperatura: 22 °C
Rocío: 8 °C
Humedad_relativa: 41%
Presión: 1025 hPa
No se esperan cambios significativos en las próximas 2 horas
Información adicional:
Qnh: 30.29 inHg
METAR del 19-04-2018 a las 15:00 UTC
SEQM 191500Z 29004KT 9999 SCT033 19/11 Q1026 NOSIG RMK A3031=
Viento: dirección 290 grados, velocidad 4 nudos
Visibilidad reinante: 10 km o más
Nubes: Dispersas a 3300 pies sobre el nivel del terreno
Temperatura: 19 °C
Rocío: 11 °C
Humedad_relativa: 60%
Presión: 1026 hPa
No se esperan cambios significativos en las próximas 2 horas
Información adicional:
Qnh: 30.31 inHg
METAR del 19-04-2018 a las 14:00 UTC
SEQM 191400Z VRB02KT 9999 BKN033 18/11 Q1026 NOSIG RMK A3032=
Viento: dirección variable, velocidad 2 nudos
Visibilidad reinante: 10 km o más
Nubes: Fragmentadas a 3300 pies sobre el nivel del terreno
Temperatura: 18 °C
Rocío: 11 °C
Humedad_relativa: 64%
Presión: 1026 hPa
No se esperan cambios significativos en las próximas 2 horas
Información adicional:
Qnh: 30.32 inHg